עמוד ראשי
METAR-TAF:

שדות תעופה :

שטוטגרט, גרמניה

קו רוחב: 48-41N, קו אורך: 009-13E, גובה: 396מטר

תצפית מזג אוויר נוכחית

הדו"ח נערך לפני 33דקות, בשעה 16:20 UTC
רוח 4קשר מכיוון צפון/צפון-מערב, משתנה בין צפון-מערב ו צפון/צפון-מזרח
טמפרטורת 20 צלסיוס
לחות 56%
לחץ 1015 hPa
ראות 10 קילומטר או יותר
ללא עננים שבסיסם נמוך מ 5000 רגל או קומולונימבוס

METAR: EDDS 301620Z 34004KT 310V020 CAVOK 20/11 Q1015 NOSIG

זמן: 18:53 (16:53 UTC)

תחזית

הדו"ח נערך לפני 5 שעות ו 53דקות, בשעה 11:00 UTC
תחזית בתוקף מ 30 ב 12 UTC עד 01 ב 12 UTC
רוח 10קשר מכיוון מערב/דרום-מערב
ראות 10 קילומטר או יותר
ללא עננים שבסיסם נמוך מ 5000 רגל או קומולונימבוס
יעשה מ
30 ב 16 UTC עד 30 ב 19 UTC
רוח 3קשר מכיוון דרום/דרום-מערב
יעשה מ
01 ב 07 UTC עד 01 ב 10 UTC
רוח 10קשר מכיוון מערב/דרום-מערב

TAF: EDDS 301100Z 3012/0112 25010KT CAVOK BECMG 3016/3019 20003KT BECMG 0107/0110 25010KT

METAR-TAF

תצפיות ותחזיות מזג אוויר לגבי יותר מ- 4,000 שדות תעופה ברחבי העולם. דוחות METAR ו- TAF.

התחנות הזמינות מסומנות בנקודות צהובות ואדומות על גבי המפה.

העבר את העכבר לנקודה הצבעונית על מנת לראות את שם התחנה.

לאחר מכן, לחץ כדי לראות את תוכן ואת תחזיות מזג האוויר.

כדי לשנות את המפה: לחץ על הכפתורים הירוקים עם הפלוס השחור כדי להתקרב; על הכפתור הירוק עם המקף כדי להתרחק; או בחיצים הירוקים למפות סמוכות.


METAR-TAF: